createdAt,value
2019-05-13T00:01:44.392Z,1.22
2019-05-13T00:04:33.714Z,1.00
2019-05-13T00:07:23.959Z,0.95
2019-05-13T00:10:14.732Z,0.98
2019-05-13T00:13:04.573Z,0.95
2019-05-13T00:15:54.189Z,0.88
2019-05-13T00:18:41.123Z,0.82
2019-05-13T00:21:29.743Z,0.95
2019-05-13T00:24:17.569Z,1.00
2019-05-13T00:27:06.153Z,1.10
2019-05-13T00:29:54.581Z,1.10
2019-05-13T00:32:44.566Z,1.07
2019-05-13T00:35:33.886Z,1.60
2019-05-13T00:38:24.563Z,1.40
2019-05-13T00:41:14.053Z,1.85
2019-05-13T00:44:03.690Z,1.37
2019-05-13T00:46:50.662Z,1.37
2019-05-13T00:49:38.950Z,1.67
2019-05-13T00:52:26.870Z,2.08
2019-05-13T00:55:15.278Z,1.45
2019-05-13T00:58:04.803Z,1.67
2019-05-13T01:00:54.650Z,1.62
2019-05-13T01:03:44.036Z,2.05
2019-05-13T01:06:31.299Z,1.87
2019-05-13T01:09:19.549Z,1.92
2019-05-13T01:12:07.878Z,2.08
2019-05-13T01:14:56.401Z,2.98
2019-05-13T01:17:44.887Z,2.58
2019-05-13T01:20:34.384Z,2.60
2019-05-13T01:23:24.075Z,3.52
2019-05-13T01:26:14.167Z,2.95
2019-05-13T01:29:04.135Z,3.40
2019-05-13T01:31:53.827Z,3.30
2019-05-13T01:34:44.198Z,3.87
2019-05-13T01:37:39.993Z,3.60
2019-05-13T01:40:21.089Z,3.65
2019-05-13T01:43:09.309Z,3.98
2019-05-13T01:45:57.964Z,4.17
2019-05-13T01:48:46.474Z,4.42
2019-05-13T01:51:34.907Z,4.67
2019-05-13T01:54:24.700Z,4.87
2019-05-13T01:57:14.320Z,5.50
2019-05-13T02:00:04.550Z,5.92
2019-05-13T02:02:54.342Z,5.72
2019-05-13T02:05:41.388Z,5.40
2019-05-13T02:08:29.951Z,5.65
2019-05-13T02:11:17.762Z,5.70
2019-05-13T02:14:05.937Z,6.17
2019-05-13T02:16:54.375Z,5.50
2019-05-13T02:19:44.093Z,5.67
2019-05-13T02:22:33.636Z,6.30
2019-05-13T02:25:23.633Z,6.40
2019-05-13T02:28:10.873Z,6.80
2019-05-13T02:30:58.626Z,6.58
2019-05-13T02:33:46.808Z,6.83
2019-05-13T02:36:34.835Z,6.00
2019-05-13T02:39:23.711Z,8.28
2019-05-13T02:42:13.292Z,9.10
2019-05-13T02:45:03.712Z,8.48
2019-05-13T02:47:52.201Z,7.40
2019-05-13T02:50:43.916Z,7.22
2019-05-13T02:53:33.261Z,7.92
2019-05-13T02:56:22.616Z,7.37
2019-05-13T02:59:13.096Z,7.90
2019-05-13T03:01:59.300Z,7.58
2019-05-13T03:04:47.713Z,8.13
2019-05-13T03:07:35.696Z,8.40
2019-05-13T03:10:24.149Z,8.58
2019-05-13T03:13:12.951Z,13.88
2019-05-13T03:16:17.421Z,10.80
2019-05-13T03:19:05.136Z,8.80
2019-05-13T03:22:04.325Z,8.08
2019-05-13T03:24:52.885Z,7.33
2019-05-13T03:27:42.887Z,10.43
2019-05-13T03:30:34.535Z,8.33
2019-05-13T03:33:26.199Z,7.20
2019-05-13T03:36:15.317Z,6.80
2019-05-13T03:39:07.101Z,7.70
2019-05-13T03:41:53.764Z,6.58
2019-05-13T03:44:44.531Z,8.05
2019-05-13T03:47:34.489Z,7.25
2019-05-13T03:50:22.892Z,6.50
2019-05-13T03:53:13.008Z,8.08
2019-05-13T03:56:02.577Z,6.55
2019-05-13T03:58:52.670Z,6.53
2019-05-13T04:01:42.714Z,6.58
2019-05-13T04:04:32.377Z,5.97
2019-05-13T04:07:23.525Z,5.83
2019-05-13T04:10:09.404Z,5.53
2019-05-13T04:12:57.265Z,5.58
2019-05-13T04:15:45.724Z,5.28
2019-05-13T04:18:33.921Z,5.58
2019-05-13T04:21:22.894Z,5.17
2019-05-13T04:24:12.287Z,5.47
2019-05-13T04:27:02.900Z,4.60
2019-05-13T04:29:52.758Z,4.03
2019-05-13T04:32:39.591Z,4.28
2019-05-13T04:35:28.095Z,4.20
2019-05-13T04:38:15.982Z,4.30
2019-05-13T04:41:04.455Z,4.10
2019-05-13T04:43:53.883Z,3.77
2019-05-13T04:46:43.534Z,3.20
2019-05-13T04:49:32.841Z,3.22
2019-05-13T04:52:22.295Z,2.62
2019-05-13T04:55:13.114Z,3.42
2019-05-13T04:58:03.606Z,3.52
2019-05-13T05:01:02.309Z,2.77
2019-05-13T05:03:54.830Z,3.35
2019-05-13T05:06:52.682Z,2.77
2019-05-13T05:10:17.815Z,3.17
2019-05-13T05:13:22.080Z,3.95
2019-05-13T05:16:27.989Z,2.70
2019-05-13T05:19:25.335Z,3.27
2019-05-13T05:22:45.431Z,3.15
2019-05-13T05:25:52.150Z,3.30
2019-05-13T05:28:59.423Z,3.37
2019-05-13T05:32:09.232Z,3.25
2019-05-13T05:35:14.953Z,3.22
2019-05-13T05:38:25.841Z,3.22
2019-05-13T05:41:14.396Z,4.03
2019-05-13T05:44:03.250Z,3.72
2019-05-13T05:46:54.996Z,3.37
2019-05-13T05:49:45.409Z,3.55
2019-05-13T05:52:35.917Z,3.20
2019-05-13T05:55:26.608Z,3.50
2019-05-13T05:58:16.712Z,3.52
2019-05-13T06:01:06.175Z,3.10
2019-05-13T06:03:56.771Z,3.02
2019-05-13T06:06:47.668Z,3.40
2019-05-13T06:09:37.216Z,3.47
2019-05-13T06:12:25.640Z,3.10
2019-05-13T06:15:14.200Z,3.15
2019-05-13T06:18:02.864Z,3.17
2019-05-13T06:20:51.333Z,3.22
2019-05-13T06:23:41.711Z,2.83
2019-05-13T06:26:31.269Z,2.72
2019-05-13T06:29:18.891Z,3.47
2019-05-13T06:32:19.063Z,2.58
2019-05-13T06:34:57.175Z,3.27
2019-05-13T06:37:45.833Z,2.92
2019-05-13T06:40:33.532Z,3.00
2019-05-13T06:43:23.226Z,3.12
2019-05-13T06:46:12.426Z,3.45
2019-05-13T06:49:02.937Z,2.70
2019-05-13T06:51:52.646Z,2.90
2019-05-13T06:54:41.856Z,3.05
2019-05-13T06:57:29.281Z,2.52
2019-05-13T07:00:21.523Z,2.77
2019-05-13T07:03:09.043Z,2.60
2019-05-13T07:05:57.619Z,1.87
2019-05-13T07:08:45.661Z,2.70
2019-05-13T07:11:33.654Z,1.92
2019-05-13T07:14:22.392Z,2.20
2019-05-13T07:17:12.356Z,1.87
2019-05-13T07:20:02.387Z,2.22
2019-05-13T07:22:53.248Z,1.75
2019-05-13T07:25:42.055Z,1.45
2019-05-13T07:28:28.990Z,2.05
2019-05-13T07:31:17.668Z,2.60
2019-05-13T07:34:05.378Z,2.50
2019-05-13T07:36:53.635Z,2.37
2019-05-13T07:39:42.029Z,2.17
2019-05-13T07:42:31.277Z,2.05
2019-05-13T07:45:21.323Z,3.10
2019-05-13T07:48:20.528Z,2.27
2019-05-13T07:51:00.568Z,2.52
2019-05-13T07:53:51.584Z,1.77
2019-05-13T07:56:38.749Z,2.12
2019-05-13T07:59:26.890Z,2.30
2019-05-13T08:02:15.238Z,2.05
2019-05-13T08:05:23.100Z,1.87
2019-05-13T08:08:11.860Z,1.30
2019-05-13T08:11:01.187Z,1.72
2019-05-13T08:13:51.725Z,1.35
2019-05-13T08:16:42.569Z,1.30
2019-05-13T08:19:32.242Z,1.02
2019-05-13T08:22:21.857Z,1.10
2019-05-13T08:25:12.411Z,1.75
2019-05-13T08:28:02.117Z,1.50
2019-05-13T08:30:51.799Z,1.00
2019-05-13T08:33:42.421Z,1.20
2019-05-13T08:36:32.534Z,1.32
2019-05-13T08:39:21.659Z,1.40
2019-05-13T08:42:18.802Z,1.12
2019-05-13T08:45:01.279Z,1.20
2019-05-13T08:47:51.117Z,1.72
2019-05-13T08:50:37.757Z,1.37
2019-05-13T08:53:27.506Z,0.88
2019-05-13T08:56:15.394Z,1.52
2019-05-13T08:59:05.872Z,1.10
2019-05-13T09:01:54.761Z,1.40
2019-05-13T09:04:43.069Z,1.50
2019-05-13T09:07:32.139Z,1.10
2019-05-13T09:10:21.469Z,1.50
2019-05-13T09:13:12.058Z,1.45
2019-05-13T09:16:02.462Z,1.30
2019-05-13T09:18:52.087Z,0.80
2019-05-13T09:21:42.355Z,1.30
2019-05-13T09:24:36.664Z,1.85
2019-05-13T09:27:22.385Z,1.50
2019-05-13T09:30:11.816Z,1.40
2019-05-13T09:32:58.964Z,1.65
2019-05-13T09:35:50.028Z,1.55
2019-05-13T09:38:38.879Z,1.57
2019-05-13T09:41:27.330Z,1.42
2019-05-13T09:44:15.468Z,1.20
2019-05-13T09:47:04.451Z,1.50
2019-05-13T09:49:54.543Z,1.62
2019-05-13T09:52:42.976Z,1.37
2019-05-13T09:55:33.261Z,1.40
2019-05-13T09:58:22.392Z,1.32
2019-05-13T10:01:12.485Z,2.05
2019-05-13T10:04:03.103Z,1.95
2019-05-13T10:06:51.760Z,1.30
2019-05-13T10:09:42.564Z,1.40
2019-05-13T10:12:32.002Z,1.57
2019-05-13T10:15:22.152Z,1.20
2019-05-13T10:18:12.368Z,1.12
2019-05-13T10:21:01.644Z,1.42
2019-05-13T10:23:49.754Z,1.45
2019-05-13T10:26:38.604Z,1.50
2019-05-13T10:29:27.737Z,1.42
2019-05-13T10:32:16.218Z,1.32
2019-05-13T10:35:05.749Z,1.35
2019-05-13T10:37:53.637Z,1.32
2019-05-13T10:40:43.312Z,1.45
2019-05-13T10:43:32.593Z,1.27
2019-05-13T10:46:22.065Z,1.47
2019-05-13T10:49:12.263Z,1.52
2019-05-13T10:52:03.101Z,1.77
2019-05-13T10:54:52.747Z,1.20
2019-05-13T10:57:42.390Z,1.27
2019-05-13T11:00:51.744Z,1.52
2019-05-13T11:03:38.895Z,1.12
2019-05-13T11:06:27.618Z,1.30
2019-05-13T11:09:15.853Z,1.20
2019-05-13T11:12:04.517Z,1.90
2019-05-13T11:14:55.129Z,1.30
2019-05-13T11:17:42.801Z,1.20
2019-05-13T11:20:32.412Z,1.55
2019-05-13T11:23:23.341Z,1.82
2019-05-13T11:26:12.876Z,1.57
2019-05-13T11:29:02.781Z,2.35
2019-05-13T11:31:52.419Z,2.00
2019-05-13T11:34:41.916Z,1.77
2019-05-13T11:37:31.835Z,1.92
2019-05-13T11:40:22.042Z,2.05
2019-05-13T11:43:12.107Z,1.80
2019-05-13T11:45:58.882Z,1.27
2019-05-13T11:48:46.674Z,2.15
2019-05-13T11:51:34.638Z,1.40
2019-05-13T11:54:22.766Z,1.12
2019-05-13T11:57:12.421Z,2.15
2019-05-13T12:00:02.652Z,1.30
2019-05-13T12:02:54.374Z,1.72
2019-05-13T12:05:42.161Z,1.95
2019-05-13T12:08:33.123Z,1.50
2019-05-13T12:11:21.704Z,2.75
2019-05-13T12:14:34.793Z,1.82
2019-05-13T12:16:58.496Z,1.98
2019-05-13T12:19:46.239Z,1.80
2019-05-13T12:22:33.782Z,1.40
2019-05-13T12:25:22.531Z,1.70
2019-05-13T12:28:11.551Z,1.87
2019-05-13T12:31:02.946Z,1.55
2019-05-13T12:33:51.974Z,0.95
2019-05-13T12:36:38.484Z,1.22
2019-05-13T12:39:26.517Z,1.27
2019-05-13T12:42:14.877Z,1.35
2019-05-13T12:45:09.934Z,1.35
2019-05-13T12:47:54.273Z,2.10
2019-05-13T12:50:43.494Z,1.98
2019-05-13T12:53:32.342Z,2.37
2019-05-13T12:56:23.484Z,1.77
2019-05-13T12:59:13.292Z,2.40
2019-05-13T13:02:03.307Z,2.00
2019-05-13T13:05:09.193Z,2.17
2019-05-13T13:07:42.484Z,2.25
2019-05-13T13:10:34.459Z,2.00
2019-05-13T13:13:26.811Z,1.98
2019-05-13T13:16:12.714Z,1.72
2019-05-13T13:19:02.444Z,2.45
2019-05-13T13:21:53.035Z,1.47
2019-05-13T13:24:48.421Z,2.40
2019-05-13T13:27:57.852Z,1.82
2019-05-13T13:30:20.074Z,2.40
2019-05-13T13:33:08.134Z,2.45
2019-05-13T13:36:00.187Z,2.10
2019-05-13T13:38:46.250Z,1.80
2019-05-13T13:41:34.506Z,2.10
2019-05-13T13:44:24.488Z,2.65
2019-05-13T13:47:14.689Z,1.40
2019-05-13T13:50:02.284Z,1.62
2019-05-13T13:52:52.965Z,1.67
2019-05-13T13:55:44.447Z,0.98
2019-05-13T13:58:32.623Z,2.10
2019-05-13T14:01:26.033Z,1.55
2019-05-13T14:04:09.357Z,1.87
2019-05-13T14:09:47.331Z,1.32
2019-05-13T14:12:35.791Z,1.22
2019-05-13T14:15:24.073Z,1.92
2019-05-13T14:18:12.778Z,1.50
2019-05-13T14:21:03.343Z,1.50
2019-05-13T14:23:51.984Z,1.12
2019-05-13T14:26:43.472Z,1.02
2019-05-13T14:29:40.629Z,1.85
2019-05-13T14:32:22.438Z,0.82
2019-05-13T14:35:12.244Z,1.60
2019-05-13T14:38:02.302Z,1.25
2019-05-13T14:40:51.728Z,1.37
2019-05-13T14:43:38.834Z,1.25
2019-05-13T14:46:43.976Z,1.32
2019-05-13T14:49:17.507Z,1.00
2019-05-13T14:52:06.106Z,1.40
2019-05-13T14:54:55.159Z,1.32
2019-05-13T14:57:43.652Z,1.57
2019-05-13T15:00:32.813Z,1.60
2019-05-13T15:03:21.892Z,1.30
2019-05-13T15:06:11.814Z,1.60
2019-05-13T15:09:01.588Z,1.87
2019-05-13T15:11:48.349Z,1.30
2019-05-13T15:14:35.911Z,1.30
2019-05-13T15:17:24.637Z,1.67
2019-05-13T15:20:12.667Z,1.95
2019-05-13T15:23:00.763Z,1.30
2019-05-13T15:25:48.617Z,1.32
2019-05-13T15:28:36.648Z,1.10
2019-05-13T15:31:24.609Z,1.17
2019-05-13T15:34:12.997Z,1.37
2019-05-13T15:37:01.959Z,1.37
2019-05-13T15:39:51.827Z,1.15
2019-05-13T15:42:40.303Z,1.45
2019-05-13T15:45:31.881Z,1.12
2019-05-13T15:48:19.194Z,1.67
2019-05-13T15:51:08.229Z,1.40
2019-05-13T15:53:57.308Z,1.30
2019-05-13T15:56:46.226Z,1.30
2019-05-13T15:59:34.950Z,1.57
2019-05-13T16:02:23.188Z,1.32
2019-05-13T16:05:12.228Z,1.37
2019-05-13T16:08:01.470Z,1.17
2019-05-13T16:10:49.322Z,1.47
2019-05-13T16:13:37.864Z,1.45
2019-05-13T16:16:52.770Z,1.42
2019-05-13T16:19:42.142Z,1.02
2019-05-13T16:22:31.543Z,1.70
2019-05-13T16:25:20.168Z,1.12
2019-05-13T16:28:08.711Z,1.40
2019-05-13T16:30:56.790Z,2.22
2019-05-13T16:33:44.694Z,1.57
2019-05-13T16:36:44.216Z,1.22
2019-05-13T16:39:32.417Z,1.82
2019-05-13T16:42:22.603Z,1.15
2019-05-13T16:45:12.601Z,1.87
2019-05-13T16:48:04.104Z,1.55
2019-05-13T16:50:50.996Z,1.02
2019-05-13T16:53:38.872Z,1.20
2019-05-13T16:56:31.015Z,1.50
2019-05-13T16:59:18.332Z,1.37
2019-05-13T17:02:07.412Z,1.12
2019-05-13T17:04:55.668Z,1.47
2019-05-13T17:07:44.293Z,1.57
2019-05-13T17:10:32.667Z,1.92
2019-05-13T17:13:22.119Z,1.25
2019-05-13T17:16:11.183Z,2.08
2019-05-13T17:19:01.411Z,1.62
2019-05-13T17:21:52.043Z,1.10
2019-05-13T17:24:48.084Z,1.40
2019-05-13T17:27:36.920Z,1.30
2019-05-13T17:30:25.391Z,1.22
2019-05-13T17:33:13.302Z,1.07
2019-05-13T17:36:02.193Z,2.15
2019-05-13T17:38:50.335Z,1.37
2019-05-13T17:41:38.861Z,1.60
2019-05-13T17:44:27.456Z,1.12
2019-05-13T17:47:15.679Z,1.22
2019-05-13T17:50:04.785Z,1.30
2019-05-13T17:52:52.778Z,1.27
2019-05-13T17:55:41.286Z,1.50
2019-05-13T17:58:31.445Z,1.32
2019-05-13T18:01:21.079Z,1.00
2019-05-13T18:04:08.641Z,1.60
2019-05-13T18:06:58.733Z,1.15
2019-05-13T18:09:46.526Z,1.10
2019-05-13T18:12:34.399Z,1.45
2019-05-13T18:15:22.710Z,1.15
2019-05-13T18:18:11.999Z,1.37
2019-05-13T18:21:01.438Z,1.52
2019-05-13T18:23:52.101Z,1.45
2019-05-13T18:26:41.953Z,1.40
2019-05-13T18:29:31.613Z,1.00
2019-05-13T18:32:21.453Z,1.27
2019-05-13T18:35:09.312Z,1.50
2019-05-13T18:37:57.349Z,1.17
2019-05-13T18:40:45.678Z,1.10
2019-05-13T18:43:33.724Z,1.12
2019-05-13T18:46:22.545Z,1.30
2019-05-13T18:49:11.980Z,1.10
2019-05-13T18:52:00.796Z,1.02
2019-05-13T18:54:51.305Z,0.80
2019-05-13T18:57:39.002Z,1.50
2019-05-13T19:00:27.404Z,1.07
2019-05-13T19:03:15.408Z,1.00
2019-05-13T19:06:03.452Z,1.27
2019-05-13T19:08:52.864Z,1.00
2019-05-13T19:11:42.752Z,1.00
2019-05-13T19:14:31.937Z,0.60
2019-05-13T19:17:22.291Z,1.10
2019-05-13T19:20:11.412Z,1.17
2019-05-13T19:23:01.144Z,1.15
2019-05-13T19:25:51.216Z,0.82
2019-05-13T19:28:38.395Z,1.07
2019-05-13T19:31:26.687Z,0.80
2019-05-13T19:34:14.470Z,1.42
2019-05-13T19:37:03.052Z,0.93
2019-05-13T19:39:51.166Z,1.30
2019-05-13T19:42:41.680Z,1.00
2019-05-13T19:45:28.396Z,0.95
2019-05-13T19:48:17.334Z,1.00
2019-05-13T19:51:05.777Z,0.98
2019-05-13T19:53:53.703Z,1.75
2019-05-13T19:56:41.721Z,1.20
2019-05-13T19:59:32.064Z,1.00
2019-05-13T20:02:19.393Z,0.82
2019-05-13T20:05:08.382Z,0.90
2019-05-13T20:07:57.928Z,0.80
2019-05-13T20:10:46.024Z,1.27
2019-05-13T20:13:33.694Z,0.90
2019-05-13T20:16:22.398Z,1.17
2019-05-13T20:19:11.818Z,0.80
2019-05-13T20:22:02.205Z,1.00
2019-05-13T20:24:51.450Z,1.65
2019-05-13T20:27:38.891Z,1.02
2019-05-13T20:30:27.084Z,1.10
2019-05-13T20:33:15.335Z,1.20
2019-05-13T20:36:05.307Z,0.82
2019-05-13T20:38:53.912Z,1.02
2019-05-13T20:41:42.212Z,1.40
2019-05-13T20:44:31.293Z,1.27
2019-05-13T20:47:21.348Z,1.20
2019-05-13T20:50:12.314Z,1.17
2019-05-13T20:53:00.003Z,1.60
2019-05-13T20:55:48.369Z,1.95
2019-05-13T20:58:36.607Z,1.35
2019-05-13T21:01:24.704Z,1.52
2019-05-13T21:04:12.517Z,1.42
2019-05-13T21:07:02.103Z,1.62
2019-05-13T21:09:51.278Z,2.15
2019-05-13T21:12:39.220Z,1.40
2019-05-13T21:15:27.657Z,1.32
2019-05-13T21:18:15.219Z,2.22
2019-05-13T21:21:03.449Z,1.70
2019-05-13T21:23:52.222Z,2.35
2019-05-13T21:26:42.023Z,1.77
2019-05-13T21:29:32.308Z,1.40
2019-05-13T21:32:21.344Z,2.00
2019-05-13T21:35:08.998Z,1.35
2019-05-13T21:37:56.717Z,2.08
2019-05-13T21:40:44.848Z,1.45
2019-05-13T21:43:33.238Z,1.62
2019-05-13T21:46:21.627Z,1.65
2019-05-13T21:49:11.945Z,1.77
2019-05-13T21:51:59.397Z,1.82
2019-05-13T21:54:47.773Z,1.90
2019-05-13T21:57:35.747Z,1.67
2019-05-13T22:00:26.602Z,1.92
2019-05-13T22:03:14.828Z,1.85
2019-05-13T22:06:02.793Z,1.82
2019-05-13T22:08:51.812Z,2.15
2019-05-13T22:11:41.957Z,1.67
2019-05-13T22:14:31.956Z,1.92
2019-05-13T22:17:19.843Z,2.47
2019-05-13T22:20:08.607Z,2.67
2019-05-13T22:22:57.053Z,2.45
2019-05-13T22:25:44.603Z,3.47
2019-05-13T22:28:32.275Z,3.08
2019-05-13T22:31:22.059Z,2.75
2019-05-13T22:34:11.937Z,2.10
2019-05-13T22:36:59.506Z,2.20
2019-05-13T22:39:49.308Z,2.98
2019-05-13T22:42:37.257Z,2.00
2019-05-13T22:45:25.449Z,2.12
2019-05-13T22:48:14.956Z,2.17
2019-05-13T22:51:03.673Z,2.45
2019-05-13T22:53:52.247Z,2.25
2019-05-13T22:56:41.222Z,2.33
2019-05-13T22:59:29.518Z,2.47
2019-05-13T23:02:17.348Z,2.45
2019-05-13T23:05:05.948Z,2.05
2019-05-13T23:07:54.004Z,2.20
2019-05-13T23:10:42.091Z,2.50
2019-05-13T23:13:31.283Z,2.10
2019-05-13T23:16:22.176Z,2.08
2019-05-13T23:19:11.136Z,2.10
2019-05-13T23:22:01.442Z,2.55
2019-05-13T23:24:48.434Z,2.15
2019-05-13T23:27:36.326Z,2.33
2019-05-13T23:30:24.864Z,1.60
2019-05-13T23:33:13.078Z,2.00
2019-05-13T23:36:01.672Z,1.92
2019-05-13T23:38:51.720Z,1.87
2019-05-13T23:41:41.669Z,1.80
2019-05-13T23:44:32.272Z,2.10
2019-05-13T23:47:21.749Z,1.70
2019-05-13T23:50:09.826Z,1.60
2019-05-13T23:52:57.832Z,1.35
2019-05-13T23:55:45.735Z,1.60
2019-05-13T23:58:33.449Z,1.30
